createdAt,value
2019-01-26T00:03:08.600Z,79.86
2019-01-26T00:05:36.682Z,76.60
2019-01-26T00:08:04.751Z,80.72
2019-01-26T00:10:32.857Z,78.65
2019-01-26T00:13:01.021Z,79.11
2019-01-26T00:15:29.062Z,77.25
2019-01-26T00:17:57.176Z,78.25
2019-01-26T00:20:25.169Z,75.82
2019-01-26T00:22:53.241Z,80.61
2019-01-26T00:25:21.244Z,76.72
2019-01-26T00:27:49.281Z,80.02
2019-01-26T00:30:17.425Z,73.74
2019-01-26T00:32:45.458Z,80.66
2019-01-26T00:35:13.459Z,81.00
2019-01-26T00:37:41.488Z,79.81
2019-01-26T00:40:09.551Z,79.10
2019-01-26T00:42:37.604Z,77.74
2019-01-26T00:45:06.290Z,77.87
2019-01-26T00:47:34.334Z,80.06
2019-01-26T00:50:02.374Z,80.40
2019-01-26T00:52:30.401Z,78.46
2019-01-26T00:54:58.411Z,81.38
2019-01-26T00:57:26.485Z,81.78
2019-01-26T00:59:54.515Z,80.06
2019-01-26T01:02:22.568Z,81.68
2019-01-26T01:04:50.631Z,77.04
2019-01-26T01:07:18.655Z,77.73
2019-01-26T01:09:46.700Z,79.82
2019-01-26T01:12:14.713Z,79.11
2019-01-26T01:14:42.707Z,80.71
2019-01-26T01:17:10.760Z,82.33
2019-01-26T01:19:38.779Z,77.28
2019-01-26T01:22:06.797Z,80.84
2019-01-26T01:24:34.800Z,78.67
2019-01-26T01:27:03.683Z,79.47
2019-01-26T01:29:31.732Z,76.49
2019-01-26T01:31:59.723Z,78.53
2019-01-26T01:34:27.704Z,79.36
2019-01-26T01:36:55.721Z,82.22
2019-01-26T01:39:23.755Z,81.97
2019-01-26T01:41:51.775Z,79.48
2019-01-26T01:44:19.783Z,79.41
2019-01-26T01:46:47.857Z,80.12
2019-01-26T01:49:15.903Z,81.36
2019-01-26T01:51:43.925Z,78.82
2019-01-26T01:54:11.921Z,81.77
2019-01-26T01:56:40.019Z,81.27
2019-01-26T01:59:08.031Z,81.80
2019-01-26T02:01:36.042Z,79.84
2019-01-26T02:04:04.051Z,81.06
2019-01-26T02:06:32.147Z,81.51
2019-01-26T02:09:00.190Z,81.98
2019-01-26T02:11:28.257Z,80.73
2019-01-26T02:13:56.265Z,75.27
2019-01-26T02:16:24.259Z,79.47
2019-01-26T02:18:52.243Z,76.72
2019-01-26T02:21:20.279Z,80.89
2019-01-26T02:23:48.297Z,81.99
2019-01-26T02:26:16.361Z,74.07
2019-01-26T02:28:44.357Z,81.52
2019-01-26T02:31:12.748Z,74.78
2019-01-26T02:33:40.909Z,81.91
2019-01-26T02:36:08.966Z,76.32
2019-01-26T02:38:37.012Z,82.00
2019-01-26T02:41:04.999Z,80.50
2019-01-26T02:43:32.962Z,82.15
2019-01-26T02:46:00.962Z,82.67
2019-01-26T02:48:29.029Z,81.79
2019-01-26T02:50:57.070Z,82.49
2019-01-26T02:53:25.054Z,82.06
2019-01-26T02:55:53.058Z,82.10
2019-01-26T02:58:21.066Z,82.28
2019-01-26T03:00:49.138Z,81.95
2019-01-26T03:03:17.136Z,81.95
2019-01-26T03:05:45.210Z,82.28
2019-01-26T03:08:13.231Z,82.74
2019-01-26T03:10:41.240Z,82.36
2019-01-26T03:13:09.252Z,82.48
2019-01-26T03:15:37.407Z,82.12
2019-01-26T03:18:05.396Z,82.63
2019-01-26T03:20:33.405Z,79.27
2019-01-26T03:23:01.407Z,74.61
2019-01-26T03:25:29.463Z,73.52
2019-01-26T03:27:57.449Z,81.90
2019-01-26T03:30:25.962Z,82.81
2019-01-26T03:32:54.066Z,81.75
2019-01-26T03:35:22.061Z,82.88
2019-01-26T03:37:50.155Z,81.93
2019-01-26T03:40:19.689Z,82.55
2019-01-26T03:42:47.815Z,82.19
2019-01-26T03:45:16.234Z,76.24
2019-01-26T03:47:44.311Z,83.04
2019-01-26T03:50:12.665Z,78.84
2019-01-26T03:52:40.677Z,72.70
2019-01-26T03:55:11.909Z,82.27
2019-01-26T03:57:40.237Z,76.69
2019-01-26T04:00:29.917Z,79.97
2019-01-26T04:02:58.012Z,81.60
2019-01-26T04:05:26.055Z,81.72
2019-01-26T04:07:54.087Z,83.10
2019-01-26T04:10:22.169Z,83.83
2019-01-26T04:12:50.218Z,74.32
2019-01-26T04:15:18.332Z,83.08
2019-01-26T04:17:46.350Z,84.19
2019-01-26T04:20:19.381Z,84.21
2019-01-26T04:22:47.484Z,84.35
2019-01-26T04:25:15.506Z,84.59
2019-01-26T04:27:43.572Z,84.00
2019-01-26T04:30:14.308Z,84.79
2019-01-26T04:32:41.532Z,80.90
2019-01-26T04:35:09.913Z,84.13
2019-01-26T04:37:38.066Z,82.71
2019-01-26T04:40:08.062Z,83.83
2019-01-26T04:42:36.201Z,84.49
2019-01-26T04:45:04.378Z,84.74
2019-01-26T04:47:32.629Z,84.90
2019-01-26T04:50:00.662Z,85.01
2019-01-26T04:52:28.925Z,85.16
2019-01-26T04:54:56.927Z,81.03
2019-01-26T04:57:24.939Z,84.24
2019-01-26T04:59:53.084Z,83.87
2019-01-26T05:02:21.188Z,84.69
2019-01-26T05:04:49.319Z,81.95
2019-01-26T05:07:18.690Z,84.67
2019-01-26T05:09:46.701Z,84.97
2019-01-26T05:12:14.831Z,84.89
2019-01-26T05:14:42.885Z,84.98
2019-01-26T05:17:10.977Z,85.18
2019-01-26T05:19:39.038Z,85.31
2019-01-26T05:22:07.253Z,85.26
2019-01-26T05:24:35.338Z,83.51
2019-01-26T05:27:03.470Z,84.99
2019-01-26T05:29:31.718Z,84.54
2019-01-26T05:31:59.852Z,85.33
2019-01-26T05:34:27.970Z,85.25
2019-01-26T05:36:56.144Z,85.56
2019-01-26T05:39:24.330Z,85.53
2019-01-26T05:41:52.441Z,79.00
2019-01-26T05:44:20.510Z,84.18
2019-01-26T05:46:48.808Z,84.75
2019-01-26T05:49:16.878Z,85.12
2019-01-26T05:51:44.952Z,85.60
2019-01-26T05:54:13.257Z,85.68
2019-01-26T05:56:41.362Z,85.58
2019-01-26T05:59:09.516Z,85.34
2019-01-26T06:01:38.095Z,84.84
2019-01-26T06:04:06.247Z,85.75
2019-01-26T06:06:34.313Z,85.94
2019-01-26T06:09:03.206Z,84.46
2019-01-26T06:11:31.281Z,85.73
2019-01-26T06:13:59.448Z,85.91
2019-01-26T06:16:27.517Z,85.86
2019-01-26T06:18:55.632Z,85.81
2019-01-26T06:21:23.681Z,85.86
2019-01-26T06:23:51.738Z,85.19
2019-01-26T06:26:19.806Z,85.69
2019-01-26T06:28:47.886Z,85.13
2019-01-26T06:31:16.359Z,85.24
2019-01-26T06:33:44.421Z,85.53
2019-01-26T06:36:12.593Z,82.25
2019-01-26T06:38:40.759Z,83.22
2019-01-26T06:41:08.786Z,84.82
2019-01-26T06:43:36.860Z,84.63
2019-01-26T06:46:04.999Z,83.83
2019-01-26T06:48:33.082Z,84.04
2019-01-26T06:51:01.192Z,84.16
2019-01-26T06:53:29.214Z,78.46
2019-01-26T06:55:57.244Z,84.23
2019-01-26T06:58:25.238Z,83.02
2019-01-26T07:00:53.427Z,83.75
2019-01-26T07:03:21.531Z,81.05
2019-01-26T07:06:03.040Z,83.42
2019-01-26T07:08:31.118Z,82.95
2019-01-26T07:10:59.266Z,82.74
2019-01-26T07:13:27.236Z,82.74
2019-01-26T07:15:57.869Z,82.26
2019-01-26T07:18:26.313Z,81.62
2019-01-26T07:20:54.383Z,83.02
2019-01-26T07:23:22.418Z,83.01
2019-01-26T07:25:50.553Z,82.58
2019-01-26T07:28:18.657Z,82.45
2019-01-26T07:30:46.819Z,82.68
2019-01-26T07:33:14.911Z,82.88
2019-01-26T07:35:43.189Z,82.52
2019-01-26T07:38:13.733Z,82.17
2019-01-26T07:40:41.760Z,82.64
2019-01-26T07:43:10.340Z,82.89
2019-01-26T07:45:38.449Z,82.83
2019-01-26T07:48:06.585Z,82.60
2019-01-26T07:50:34.706Z,83.34
2019-01-26T07:53:02.778Z,81.52
2019-01-26T07:55:30.830Z,83.12
2019-01-26T07:57:59.061Z,82.87
2019-01-26T08:00:30.686Z,74.44
2019-01-26T08:02:58.762Z,82.95
2019-01-26T08:05:27.646Z,83.22
2019-01-26T08:07:55.726Z,80.77
2019-01-26T08:10:24.217Z,83.12
2019-01-26T08:12:52.515Z,82.79
2019-01-26T08:15:23.115Z,82.64
2019-01-26T08:17:51.311Z,82.79
2019-01-26T08:20:20.231Z,81.74
2019-01-26T08:22:48.462Z,82.93
2019-01-26T08:25:16.759Z,82.74
2019-01-26T08:27:44.797Z,80.12
2019-01-26T08:30:31.385Z,80.82
2019-01-26T08:32:59.546Z,82.04
2019-01-26T08:35:27.555Z,81.19
2019-01-26T08:37:55.598Z,81.99
2019-01-26T08:40:23.703Z,82.33
2019-01-26T08:42:51.954Z,75.41
2019-01-26T08:45:20.111Z,82.16
2019-01-26T08:47:48.515Z,82.45
2019-01-26T08:50:18.875Z,82.99
2019-01-26T08:52:46.999Z,82.48
2019-01-26T08:55:18.196Z,80.66
2019-01-26T08:57:45.151Z,82.59
2019-01-26T09:00:17.310Z,80.33
2019-01-26T09:03:13.728Z,81.46
2019-01-26T09:06:01.810Z,82.46
2019-01-26T09:08:30.044Z,78.92
2019-01-26T09:10:58.326Z,82.63
2019-01-26T09:13:26.464Z,82.65
2019-01-26T09:15:54.627Z,82.50
2019-01-26T09:18:22.665Z,82.63
2019-01-26T09:20:50.769Z,80.88
2019-01-26T09:23:18.970Z,82.02
2019-01-26T09:25:47.220Z,81.06
2019-01-26T09:28:15.595Z,82.46
2019-01-26T09:30:43.803Z,82.04
2019-01-26T09:33:11.879Z,82.47
2019-01-26T09:35:40.052Z,82.79
2019-01-26T09:38:08.219Z,81.17
2019-01-26T09:40:36.385Z,82.66
2019-01-26T09:43:04.590Z,82.52
2019-01-26T09:45:32.697Z,81.82
2019-01-26T09:48:01.524Z,82.23
2019-01-26T09:50:29.707Z,78.18
2019-01-26T09:52:57.835Z,82.07
2019-01-26T09:55:26.028Z,82.21
2019-01-26T09:57:54.086Z,81.97
2019-01-26T10:00:22.236Z,81.91
2019-01-26T10:02:50.309Z,82.43
2019-01-26T10:05:18.603Z,82.27
2019-01-26T10:07:46.679Z,80.00
2019-01-26T10:10:14.846Z,80.08
2019-01-26T10:12:43.156Z,81.92
2019-01-26T10:15:13.674Z,80.97
2019-01-26T10:17:45.934Z,81.27
2019-01-26T10:20:15.481Z,82.08
2019-01-26T10:22:43.639Z,79.27
2019-01-26T10:25:12.460Z,80.71
2019-01-26T10:27:40.660Z,81.11
2019-01-26T10:30:13.439Z,81.10
2019-01-26T10:32:41.498Z,79.98
2019-01-26T10:35:10.386Z,80.90
2019-01-26T10:37:38.507Z,81.33
2019-01-26T10:40:16.833Z,80.46
2019-01-26T10:42:45.063Z,81.59
2019-01-26T10:45:13.390Z,80.02
2019-01-26T10:47:41.604Z,78.98
2019-01-26T10:50:09.853Z,81.81
2019-01-26T10:52:37.917Z,80.54
2019-01-26T10:55:07.260Z,81.26
2019-01-26T10:57:35.327Z,80.14
2019-01-26T11:00:03.730Z,81.44
2019-01-26T11:02:31.876Z,80.56
2019-01-26T11:05:00.025Z,78.85
2019-01-26T11:07:28.099Z,81.02
2019-01-26T11:09:56.221Z,81.15
2019-01-26T11:12:24.596Z,81.56
2019-01-26T11:14:52.778Z,79.05
2019-01-26T11:17:20.809Z,81.35
2019-01-26T11:19:48.843Z,81.81
2019-01-26T11:22:16.954Z,79.54
2019-01-26T11:24:45.064Z,81.37
2019-01-26T11:27:13.227Z,80.48
2019-01-26T11:29:41.656Z,81.54
2019-01-26T11:32:09.809Z,80.81
2019-01-26T11:34:38.156Z,81.03
2019-01-26T11:37:06.568Z,80.61
2019-01-26T11:39:34.668Z,81.57
2019-01-26T11:42:02.893Z,80.27
2019-01-26T11:44:31.055Z,81.65
2019-01-26T11:47:12.549Z,81.37
2019-01-26T11:49:46.013Z,81.54
2019-01-26T11:52:14.089Z,80.78
2019-01-26T11:57:47.146Z,81.58
2019-01-26T12:00:43.037Z,81.15
2019-01-26T12:03:27.934Z,81.57
2019-01-26T12:06:20.819Z,81.52
2019-01-26T12:08:49.295Z,81.70
2019-01-26T12:11:17.450Z,81.67
2019-01-26T12:13:45.743Z,80.87
2019-01-26T12:16:13.827Z,81.60
2019-01-26T12:18:42.001Z,80.14
2019-01-26T12:21:10.214Z,81.39
2019-01-26T12:23:38.413Z,82.34
2019-01-26T12:26:06.910Z,80.81
2019-01-26T12:28:35.326Z,80.97
2019-01-26T12:31:03.583Z,80.76
2019-01-26T12:33:32.023Z,79.39
2019-01-26T12:36:00.210Z,81.78
2019-01-26T12:38:28.460Z,81.33
2019-01-26T12:40:56.722Z,80.82
2019-01-26T12:43:24.983Z,82.04
2019-01-26T12:45:53.403Z,81.78
2019-01-26T12:48:21.879Z,79.89
2019-01-26T12:50:50.369Z,81.91
2019-01-26T12:53:18.790Z,80.73
2019-01-26T12:55:47.405Z,80.63
2019-01-26T12:58:16.059Z,80.98
2019-01-26T13:00:44.263Z,81.34
2019-01-26T13:03:12.830Z,80.77
2019-01-26T13:05:41.212Z,81.30
2019-01-26T13:08:10.039Z,80.88
2019-01-26T13:10:41.859Z,81.18
2019-01-26T13:13:10.083Z,81.14
2019-01-26T13:15:38.312Z,80.77
2019-01-26T13:18:06.937Z,80.23
2019-01-26T13:20:35.052Z,80.08
2019-01-26T13:23:03.335Z,79.92
2019-01-26T13:25:31.679Z,80.89
2019-01-26T13:27:59.937Z,80.82
2019-01-26T13:30:28.332Z,79.95
2019-01-26T13:32:56.606Z,79.08
2019-01-26T13:35:24.717Z,79.22
2019-01-26T13:37:52.886Z,79.32
2019-01-26T13:40:21.886Z,81.06
2019-01-26T13:42:50.156Z,79.68
2019-01-26T13:45:18.382Z,81.08
2019-01-26T13:47:46.615Z,80.84
2019-01-26T13:50:14.676Z,81.20
2019-01-26T13:52:42.864Z,80.80
2019-01-26T13:55:15.938Z,80.70
2019-01-26T13:57:44.257Z,80.34
2019-01-26T14:00:31.884Z,80.25
2019-01-26T14:03:00.077Z,80.85
2019-01-26T14:05:28.280Z,80.33
2019-01-26T14:07:56.570Z,79.55
2019-01-26T14:10:24.810Z,80.04
2019-01-26T14:12:53.094Z,79.65
2019-01-26T14:15:21.440Z,78.52
2019-01-26T14:17:49.965Z,79.86
2019-01-26T14:20:20.123Z,80.46
2019-01-26T14:22:48.471Z,79.96
2019-01-26T14:25:17.109Z,79.78
2019-01-26T14:27:45.488Z,79.36
2019-01-26T14:30:20.899Z,80.50
2019-01-26T14:32:52.546Z,80.15
2019-01-26T14:35:19.518Z,81.01
2019-01-26T14:37:47.781Z,81.30
2019-01-26T14:40:16.340Z,80.41
2019-01-26T14:42:44.594Z,81.71
2019-01-26T14:45:13.592Z,80.27
2019-01-26T14:47:42.131Z,81.09
2019-01-26T14:50:11.653Z,81.97
2019-01-26T14:52:39.999Z,82.32
2019-01-26T14:55:10.830Z,81.88
2019-01-26T14:57:39.170Z,81.86
2019-01-26T15:00:11.058Z,80.67
2019-01-26T15:02:39.438Z,81.14
2019-01-26T15:05:08.531Z,80.82
2019-01-26T15:07:36.836Z,81.17
2019-01-26T15:10:05.776Z,80.44
2019-01-26T15:12:34.791Z,80.22
2019-01-26T15:15:03.277Z,79.79
2019-01-26T15:17:31.469Z,81.67
2019-01-26T15:20:05.773Z,81.44
2019-01-26T15:22:30.129Z,79.21
2019-01-26T15:24:58.420Z,80.29
2019-01-26T15:27:27.503Z,79.64
2019-01-26T15:29:55.946Z,79.77
2019-01-26T15:32:24.347Z,79.16
2019-01-26T15:34:52.796Z,79.58
2019-01-26T15:37:21.453Z,80.30
2019-01-26T15:39:49.677Z,79.61
2019-01-26T15:42:19.119Z,79.83
2019-01-26T15:44:47.701Z,80.33
2019-01-26T15:47:16.256Z,80.76
2019-01-26T15:49:44.968Z,80.59
2019-01-26T15:52:13.081Z,80.50
2019-01-26T15:54:41.170Z,80.07
2019-01-26T15:57:09.594Z,79.40
2019-01-26T15:59:37.957Z,78.44
2019-01-26T16:02:06.610Z,80.91
2019-01-26T16:04:34.936Z,79.21
2019-01-26T16:07:04.217Z,79.41
2019-01-26T16:09:32.966Z,79.64
2019-01-26T16:12:01.350Z,77.58
2019-01-26T16:14:32.171Z,78.59
2019-01-26T16:17:00.476Z,79.21
2019-01-26T16:19:29.046Z,78.19
2019-01-26T16:21:57.639Z,77.85
2019-01-26T16:24:25.938Z,79.60
2019-01-26T16:26:54.151Z,79.01
2019-01-26T16:29:22.753Z,79.49
2019-01-26T16:31:50.861Z,78.64
2019-01-26T16:34:19.409Z,77.95
2019-01-26T16:36:47.665Z,77.51
2019-01-26T16:39:15.894Z,77.67
2019-01-26T16:41:44.171Z,78.28
2019-01-26T16:44:12.542Z,78.62
2019-01-26T16:46:40.683Z,78.11
2019-01-26T16:49:08.988Z,77.78
2019-01-26T16:51:37.011Z,78.00
2019-01-26T16:54:05.368Z,78.27
2019-01-26T16:56:33.442Z,76.59
2019-01-26T16:59:01.654Z,78.55
2019-01-26T17:01:29.928Z,77.98
2019-01-26T17:03:58.054Z,78.21
2019-01-26T17:06:26.474Z,77.91
2019-01-26T17:08:54.542Z,77.42
2019-01-26T17:11:22.551Z,76.61
2019-01-26T17:13:50.852Z,77.54
2019-01-26T17:16:19.178Z,77.93
2019-01-26T17:18:47.421Z,77.36
2019-01-26T17:21:15.642Z,78.80
2019-01-26T17:23:43.881Z,75.91
2019-01-26T17:26:12.129Z,78.13
2019-01-26T17:28:40.515Z,77.69
2019-01-26T17:31:08.800Z,78.06
2019-01-26T17:33:37.013Z,76.76
2019-01-26T17:36:05.170Z,77.10
2019-01-26T17:38:33.330Z,79.10
2019-01-26T17:41:01.466Z,78.09
2019-01-26T17:43:30.370Z,78.96
2019-01-26T17:45:58.583Z,78.12
2019-01-26T17:48:26.972Z,78.98
2019-01-26T17:50:55.124Z,78.43
2019-01-26T17:53:23.228Z,76.31
2019-01-26T17:55:51.725Z,78.68
2019-01-26T17:58:20.091Z,77.06
2019-01-26T18:01:09.197Z,80.10
2019-01-26T18:03:37.760Z,77.37
2019-01-26T18:06:06.001Z,80.84
2019-01-26T18:08:34.472Z,78.41
2019-01-26T18:11:02.591Z,79.71
2019-01-26T18:13:30.743Z,77.45
2019-01-26T18:15:59.353Z,77.26
2019-01-26T18:18:28.452Z,79.73
2019-01-26T18:20:56.886Z,77.08
2019-01-26T18:23:29.685Z,76.34
2019-01-26T18:25:59.017Z,78.66
2019-01-26T18:28:27.629Z,78.58
2019-01-26T18:30:56.529Z,78.38
2019-01-26T18:33:25.013Z,79.71
2019-01-26T18:35:53.955Z,78.06
2019-01-26T18:38:23.331Z,78.83
2019-01-26T18:40:52.067Z,77.68
2019-01-26T18:43:20.661Z,79.44
2019-01-26T18:45:49.331Z,78.76
2019-01-26T18:48:18.277Z,78.80
2019-01-26T18:50:48.770Z,77.68
2019-01-26T18:53:17.344Z,75.93
2019-01-26T18:55:45.940Z,79.57
2019-01-26T18:58:14.823Z,78.95
2019-01-26T19:00:46.536Z,79.80
2019-01-26T19:03:46.087Z,79.97
2019-01-26T19:06:14.823Z,79.80
2019-01-26T19:08:44.362Z,80.33
2019-01-26T19:11:12.831Z,75.76
2019-01-26T19:13:41.544Z,80.06
2019-01-26T19:16:11.068Z,79.15
2019-01-26T19:18:39.298Z,78.63
2019-01-26T19:21:07.474Z,79.28
2019-01-26T19:23:35.868Z,78.01
2019-01-26T19:26:04.469Z,80.80
2019-01-26T19:28:32.800Z,79.35
2019-01-26T19:31:01.620Z,77.30
2019-01-26T19:33:30.211Z,75.55
2019-01-26T19:35:58.965Z,77.77
2019-01-26T19:38:27.449Z,78.19
2019-01-26T19:40:56.323Z,76.98
2019-01-26T19:43:25.375Z,78.22
2019-01-26T19:45:53.705Z,76.61
2019-01-26T19:48:22.324Z,77.70
2019-01-26T19:50:51.079Z,77.56
2019-01-26T19:53:19.575Z,75.41
2019-01-26T19:55:48.025Z,75.21
2019-01-26T19:58:16.783Z,77.12
2019-01-26T20:00:45.640Z,75.14
2019-01-26T20:03:14.065Z,77.65
2019-01-26T20:05:48.059Z,75.38
2019-01-26T20:08:12.802Z,78.08
2019-01-26T20:10:41.251Z,77.66
2019-01-26T20:13:29.044Z,80.30
2019-01-26T20:15:58.829Z,75.61
2019-01-26T20:18:27.884Z,78.70
2019-01-26T20:20:56.899Z,76.16
2019-01-26T20:23:25.776Z,75.32
2019-01-26T20:25:54.684Z,78.35
2019-01-26T20:28:24.284Z,77.31
2019-01-26T20:30:53.970Z,75.72
2019-01-26T20:33:23.037Z,77.72
2019-01-26T20:35:51.694Z,76.28
2019-01-26T20:38:20.154Z,77.91
2019-01-26T20:40:48.951Z,76.77
2019-01-26T20:43:17.862Z,77.50
2019-01-26T20:45:46.466Z,78.37
2019-01-26T20:48:15.609Z,78.79
2019-01-26T20:50:44.258Z,77.94
2019-01-26T20:53:14.580Z,77.71
2019-01-26T20:55:43.464Z,75.83
2019-01-26T20:58:13.110Z,77.47
2019-01-26T21:00:47.286Z,76.65
2019-01-26T21:03:17.403Z,76.98
2019-01-26T21:05:46.841Z,77.23
2019-01-26T21:08:15.857Z,75.75
2019-01-26T21:10:44.858Z,77.59
2019-01-26T21:13:16.428Z,78.28
2019-01-26T21:15:43.713Z,76.56
2019-01-26T21:18:12.183Z,78.38
2019-01-26T21:20:40.548Z,76.25
2019-01-26T21:23:10.160Z,76.19
2019-01-26T21:25:38.761Z,76.70
2019-01-26T21:28:07.811Z,77.69
2019-01-26T21:30:36.394Z,77.68
2019-01-26T21:33:04.632Z,76.93
2019-01-26T21:35:33.690Z,76.46
2019-01-26T21:38:02.442Z,75.62
2019-01-26T21:40:36.533Z,77.21
2019-01-26T21:43:04.955Z,77.67
2019-01-26T21:45:33.355Z,76.92
2019-01-26T21:48:02.164Z,78.82
2019-01-26T21:50:31.811Z,76.63
2019-01-26T21:53:00.209Z,76.00
2019-01-26T21:55:28.334Z,77.26
2019-01-26T21:57:56.517Z,76.40
2019-01-26T22:00:27.198Z,77.87
2019-01-26T22:02:54.513Z,78.66
2019-01-26T22:05:22.980Z,80.09
2019-01-26T22:07:51.298Z,78.29
2019-01-26T22:10:20.617Z,76.83
2019-01-26T22:12:48.743Z,77.69
2019-01-26T22:15:19.088Z,78.57
2019-01-26T22:17:47.297Z,75.50
2019-01-26T22:20:20.395Z,78.00
2019-01-26T22:22:48.905Z,75.71
2019-01-26T22:25:16.972Z,75.79
2019-01-26T22:27:45.071Z,75.83
2019-01-26T22:30:16.128Z,78.00
2019-01-26T22:32:44.334Z,75.80
2019-01-26T22:35:12.756Z,76.35
2019-01-26T22:37:40.890Z,78.19
2019-01-26T22:40:14.069Z,75.88
2019-01-26T22:42:42.247Z,78.19
2019-01-26T22:45:10.980Z,77.77
2019-01-26T22:47:39.138Z,75.81
2019-01-26T22:50:09.070Z,76.41
2019-01-26T22:52:37.305Z,75.54
2019-01-26T22:55:07.360Z,77.89
2019-01-26T22:57:36.659Z,77.04
2019-01-26T23:00:05.686Z,75.66
2019-01-26T23:02:33.759Z,75.95
2019-01-26T23:05:53.438Z,76.86
2019-01-26T23:08:28.314Z,77.44
2019-01-26T23:11:07.125Z,75.70
2019-01-26T23:13:57.087Z,76.46
2019-01-26T23:17:10.503Z,76.21
2019-01-26T23:20:16.778Z,76.04
2019-01-26T23:23:10.393Z,75.54
2019-01-26T23:26:10.180Z,75.30
2019-01-26T23:29:34.682Z,76.80
2019-01-26T23:32:02.759Z,75.56
2019-01-26T23:34:30.896Z,75.93
2019-01-26T23:36:59.107Z,77.42
2019-01-26T23:39:27.109Z,77.15
2019-01-26T23:41:55.674Z,75.82
2019-01-26T23:44:23.798Z,75.46
2019-01-26T23:46:51.939Z,77.10
2019-01-26T23:49:20.178Z,76.37
2019-01-26T23:51:48.209Z,76.83
2019-01-26T23:54:16.427Z,75.07
2019-01-26T23:56:44.602Z,76.10
2019-01-26T23:59:12.642Z,75.34
